Time;durP1;ratioP1;P1;durP2;ratioP2;P2;SDS_P1;SDS_P2;PMS_P1;PMS_P2;Temp;Humidity;BMP_temperature;BMP_pressure;BME280_temperature;BME280_humidity;BME280_pressure;Samples;Min_cycle;Max_cycle;Signal;HPM_P1;HPM_P2
2023/09/06 00:02:12;;;;;;;4.05;1.88;;;;;;;25.37;100.00;101541.38;4981407;28;20058;-49
2023/09/06 00:04:38;;;;;;;5.25;2.58;;;;;;;25.34;100.00;101543.19;4989728;28;20047;-46
2023/09/06 00:07:06;;;;;;;5.22;2.50;;;;;;;25.35;100.00;101541.88;4989735;28;20053;-49
2023/09/06 00:09:32;;;;;;;5.15;2.13;;;;;;;25.35;100.00;101546.81;4992950;28;20104;-48
2023/09/06 00:11:59;;;;;;;2.97;1.90;;;;;;;25.27;100.00;101542.81;4988953;28;20050;-49
2023/09/06 00:14:29;;;;;;;7.00;2.42;;;;;;;25.28;100.00;101541.56;4986051;28;20128;-47
2023/09/06 00:16:56;;;;;;;5.47;2.00;;;;;;;25.15;100.00;101538.31;4989833;28;20046;-47
2023/09/06 00:19:22;;;;;;;4.85;2.05;;;;;;;25.18;100.00;101535.22;4989344;28;20054;-48
2023/09/06 00:21:50;;;;;;;4.07;1.75;;;;;;;25.29;100.00;101537.44;4986845;28;20054;-49
2023/09/06 00:24:19;;;;;;;5.45;2.00;;;;;;;25.34;100.00;101537.47;4988172;28;20101;-50
2023/09/06 00:26:45;;;;;;;3.72;1.60;;;;;;;25.39;100.00;101535.97;4989209;28;20054;-48
2023/09/06 00:29:12;;;;;;;3.40;2.13;;;;;;;25.20;100.00;101532.66;4987636;28;20054;-48
2023/09/06 00:31:38;;;;;;;4.75;2.15;;;;;;;25.20;100.00;101534.72;4988745;28;20046;-48
2023/09/06 00:34:05;;;;;;;4.60;2.00;;;;;;;25.17;100.00;101532.91;4987736;28;20089;-47
2023/09/06 00:36:33;;;;;;;4.43;2.08;;;;;;;25.19;100.00;101545.34;4985622;28;20480;-50
2023/09/06 00:39:00;;;;;;;7.45;2.25;;;;;;;25.25;100.00;101534.03;4987461;28;20054;-47
2023/09/06 00:41:27;;;;;;;5.28;1.98;;;;;;;25.28;100.00;101536.63;4987588;28;20050;-48
2023/09/06 00:43:53;;;;;;;2.88;2.10;;;;;;;25.33;100.00;101535.94;4989473;28;20101;-47
2023/09/06 00:46:20;;;;;;;3.45;1.98;;;;;;;25.27;100.00;101543.63;4986611;28;20047;-47
2023/09/06 00:48:50;;;;;;;5.72;2.15;;;;;;;25.29;100.00;101543.13;4988654;28;20050;-51
2023/09/06 00:51:19;;;;;;;3.83;1.92;;;;;;;25.27;100.00;101545.66;4987463;28;20054;-49
2023/09/06 00:53:47;;;;;;;3.88;2.13;;;;;;;25.32;100.00;101542.91;4989522;28;20082;-49
2023/09/06 00:56:17;;;;;;;4.05;2.38;;;;;;;25.34;100.00;101539.56;4986857;28;20066;-47
2023/09/06 00:58:45;;;;;;;4.38;2.03;;;;;;;25.36;100.00;101548.38;4988451;28;20050;-49
2023/09/06 01:01:11;;;;;;;6.18;2.40;;;;;;;25.29;100.00;101535.38;4987956;28;20049;-52
2023/09/06 01:03:41;;;;;;;2.92;1.88;;;;;;;25.31;100.00;101540.56;4981059;28;20133;-47
2023/09/06 01:06:37;;;;;;;4.30;2.25;;;;;;;25.34;100.00;101543.19;4982173;28;20471;-48
2023/09/06 01:09:05;;;;;;;6.30;2.22;;;;;;;25.30;100.00;101542.63;4985733;28;20078;-49
2023/09/06 01:11:37;;;;;;;3.63;1.98;;;;;;;25.35;100.00;101541.13;4985947;28;20667;-49
2023/09/06 01:14:06;;;;;;;3.13;1.95;;;;;;;25.33;100.00;101546.53;4985650;28;20065;-50
2023/09/06 01:16:45;;;;;;;4.72;1.90;;;;;;;25.37;100.00;101552.78;4988206;28;20690;-48
2023/09/06 01:19:18;;;;;;;4.57;2.30;;;;;;;25.35;100.00;101558.19;4988601;28;20060;-48
2023/09/06 01:22:17;;;;;;;4.80;2.15;;;;;;;25.33;100.00;101557.91;4989985;28;20116;-48
2023/09/06 01:24:48;;;;;;;3.08;1.85;;;;;;;25.22;100.00;101560.63;4977327;28;20141;-47
2023/09/06 01:27:15;;;;;;;4.20;2.58;;;;;;;25.21;100.00;101559.06;4989550;28;20420;-53
2023/09/06 01:29:42;;;;;;;4.75;1.92;;;;;;;25.17;100.00;101558.50;4989893;28;20097;-48
2023/09/06 01:32:08;;;;;;;3.15;2.08;;;;;;;25.19;100.00;101565.25;4991301;28;20109;-50
2023/09/06 01:34:35;;;;;;;4.85;2.00;;;;;;;25.25;100.00;101562.47;4986817;28;20101;-47
2023/09/06 01:37:02;;;;;;;4.75;2.40;;;;;;;25.30;100.00;101562.53;4989847;28;20054;-50
2023/09/06 01:39:28;;;;;;;5.32;2.00;;;;;;;25.26;100.00;101564.03;4988575;28;20105;-52
2023/09/06 01:41:55;;;;;;;4.25;2.28;;;;;;;25.32;100.00;101564.88;4984771;28;20050;-47
2023/09/06 01:44:21;;;;;;;5.15;2.20;;;;;;;25.29;100.00;101558.13;4988022;28;20058;-50
2023/09/06 01:46:48;;;;;;;5.95;2.22;;;;;;;25.22;100.00;101558.56;4989939;28;20046;-49
2023/09/06 01:49:15;;;;;;;3.88;2.08;;;;;;;25.16;100.00;101560.56;4989027;28;20054;-49
2023/09/06 01:51:41;;;;;;;5.43;2.10;;;;;;;25.19;100.00;101556.72;4989144;28;20509;-50
2023/09/06 01:54:09;;;;;;;5.43;2.03;;;;;;;25.25;100.00;101563.28;4989972;28;20053;-47
2023/09/06 01:56:35;;;;;;;3.92;2.00;;;;;;;25.21;100.00;101559.84;4986400;28;20532;-53
2023/09/06 01:59:03;;;;;;;3.30;1.90;;;;;;;25.24;100.00;101558.84;4989756;28;20054;-49
2023/09/06 02:01:30;;;;;;;3.17;1.88;;;;;;;25.05;100.00;101562.50;4987765;28;20089;-47
2023/09/06 02:03:58;;;;;;;2.83;1.90;;;;;;;25.06;100.00;101564.03;4989026;28;20141;-52
2023/09/06 02:06:25;;;;;;;4.18;2.13;;;;;;;25.07;100.00;101560.69;4985506;28;20096;-47
2023/09/06 02:08:52;;;;;;;3.85;1.58;;;;;;;25.08;100.00;101561.50;4989045;28;20133;-46
2023/09/06 02:11:20;;;;;;;6.53;2.45;;;;;;;25.28;100.00;101564.31;4991036;28;20112;-49
2023/09/06 02:13:47;;;;;;;8.05;2.25;;;;;;;25.38;100.00;101562.88;4991332;28;20054;-48
2023/09/06 02:16:16;;;;;;;6.18;2.22;;;;;;;25.36;100.00;101569.09;4990338;28;20464;-48
2023/09/06 02:18:43;;;;;;;5.82;2.17;;;;;;;25.42;100.00;101572.78;4991207;28;20054;-45
2023/09/06 02:21:09;;;;;;;4.22;2.10;;;;;;;25.44;100.00;101566.59;4989875;28;20512;-49
2023/09/06 02:23:36;;;;;;;3.85;1.90;;;;;;;25.40;100.00;101568.84;4989996;28;20463;-48
2023/09/06 02:26:03;;;;;;;4.22;2.22;;;;;;;25.40;100.00;101569.66;4991597;28;20132;-45
2023/09/06 02:28:29;;;;;;;3.85;1.92;;;;;;;25.37;100.00;101562.09;4990767;28;20050;-50
2023/09/06 02:30:56;;;;;;;4.72;1.98;;;;;;;25.38;100.00;101562.88;4992096;28;20149;-48
2023/09/06 02:33:23;;;;;;;3.40;2.15;;;;;;;25.39;100.00;101564.44;4991665;28;20074;-43
2023/09/06 02:35:49;;;;;;;5.05;1.98;;;;;;;25.39;100.00;101562.41;4990910;28;20121;-47
2023/09/06 02:38:16;;;;;;;5.40;2.40;;;;;;;25.38;100.00;101565.75;4989585;28;20129;-46
2023/09/06 02:40:43;;;;;;;3.85;1.75;;;;;;;25.41;100.00;101570.44;4991879;28;20680;-48
2023/09/06 02:43:11;;;;;;;7.25;2.30;;;;;;;25.39;100.00;101575.84;4991607;28;20416;-49
2023/09/06 02:45:38;;;;;;;4.72;2.28;;;;;;;25.39;100.00;101570.13;4989193;28;20050;-50
2023/09/06 02:48:13;;;;;;;4.38;2.13;;;;;;;25.38;100.00;101580.72;4990258;28;20046;-46
2023/09/06 02:50:40;;;;;;;4.47;2.20;;;;;;;25.40;100.00;101575.34;4990329;28;20445;-46
2023/09/06 02:53:19;;;;;;;2.85;1.90;;;;;;;25.38;100.00;101580.72;4991461;28;20054;-49
2023/09/06 02:55:48;;;;;;;5.82;2.28;;;;;;;25.36;100.00;101583.31;4990401;28;20050;-47
2023/09/06 02:58:18;;;;;;;6.20;2.15;;;;;;;25.39;100.00;101582.31;4990239;28;20507;-49
2023/09/06 03:00:47;;;;;;;3.35;1.85;;;;;;;25.39;100.00;101590.06;4990381;28;20093;-50
2023/09/06 03:03:15;;;;;;;4.03;1.80;;;;;;;25.38;100.00;101589.28;4991281;28;20133;-49
2023/09/06 03:05:42;;;;;;;5.05;2.10;;;;;;;25.39;100.00;101588.00;4986805;28;20137;-48
2023/09/06 03:08:10;;;;;;;4.72;1.92;;;;;;;25.37;100.00;101589.78;4990384;28;20042;-48
2023/09/06 03:10:42;;;;;;;3.10;1.58;;;;;;;25.35;100.00;101589.50;4989437;28;20054;-48
2023/09/06 03:13:11;;;;;;;4.25;2.20;;;;;;;25.36;100.00;101589.00;4990592;28;20424;-49
2023/09/06 03:15:43;;;;;;;4.68;2.30;;;;;;;25.35;100.00;101587.41;4988560;28;20046;-43
2023/09/06 03:18:10;;;;;;;5.00;2.47;;;;;;;25.34;100.00;101588.72;4989557;28;20126;-45
2023/09/06 03:20:42;;;;;;;7.93;4.15;;;;;;;25.35;100.00;101590.28;4986232;28;20497;-50
2023/09/06 03:23:18;;;;;;;5.68;2.10;;;;;;;25.32;100.00;101584.81;4988077;28;20073;-49
2023/09/06 03:25:57;;;;;;;6.60;2.17;;;;;;;25.32;100.00;101587.66;4984022;28;20068;-48
2023/09/06 03:28:25;;;;;;;5.45;2.17;;;;;;;25.31;100.00;101589.72;4989881;28;20493;-50
2023/09/06 03:30:53;;;;;;;4.32;1.98;;;;;;;25.31;100.00;101592.56;4990333;28;20046;-46
2023/09/06 03:33:19;;;;;;;6.63;2.30;;;;;;;25.29;100.00;101589.44;4990387;28;20475;-47
2023/09/06 03:35:46;;;;;;;4.32;2.20;;;;;;;25.33;100.00;101592.84;4989561;28;20054;-46
2023/09/06 03:38:17;;;;;;;4.90;2.20;;;;;;;25.30;100.00;101596.69;4988394;28;20046;-49
2023/09/06 03:40:44;;;;;;;4.72;2.25;;;;;;;25.33;100.00;101594.91;4983077;28;20054;-48
2023/09/06 03:43:26;;;;;;;4.43;2.00;;;;;;;25.32;100.00;101599.03;4988559;28;20429;-45
2023/09/06 03:45:55;;;;;;;6.03;2.38;;;;;;;25.30;100.00;101601.59;4984478;28;20105;-47
2023/09/06 03:48:23;;;;;;;3.72;2.20;;;;;;;25.31;100.00;101606.03;4988342;28;20073;-47
2023/09/06 03:50:53;;;;;;;5.07;2.20;;;;;;;25.27;100.00;101602.59;4988855;28;20081;-48
2023/09/06 03:53:19;;;;;;;7.60;2.70;;;;;;;25.28;100.00;101604.94;4984189;28;20052;-49
2023/09/06 03:55:46;;;;;;;7.13;3.05;;;;;;;25.28;100.00;101602.09;4988455;28;20101;-45
2023/09/06 03:58:13;;;;;;;6.20;2.60;;;;;;;25.31;100.00;101600.34;4989880;28;20050;-51
2023/09/06 04:00:43;;;;;;;4.38;1.90;;;;;;;25.28;100.00;101604.16;4989205;28;20073;-48
2023/09/06 04:03:14;;;;;;;5.03;2.08;;;;;;;25.27;100.00;101609.06;4989082;28;20101;-48
2023/09/06 04:05:43;;;;;;;5.90;2.25;;;;;;;25.29;100.00;101608.56;4989066;28;20061;-48
2023/09/06 04:08:10;;;;;;;3.50;1.90;;;;;;;25.30;100.00;101607.28;4988995;28;20117;-48
2023/09/06 04:10:38;;;;;;;5.85;2.67;;;;;;;25.28;100.00;101612.72;4987858;28;20050;-48
2023/09/06 04:13:09;;;;;;;4.68;1.92;;;;;;;25.27;100.00;101609.06;4989662;28;20054;-48
2023/09/06 04:15:37;;;;;;;4.47;2.13;;;;;;;25.27;100.00;101602.59;4990062;28;20050;-47
2023/09/06 04:18:06;;;;;;;6.57;2.72;;;;;;;25.28;100.00;101607.03;4988233;28;20057;-48
2023/09/06 04:20:36;;;;;;;6.45;2.78;;;;;;;25.28;100.00;101604.16;4986977;28;20137;-50
2023/09/06 04:23:05;;;;;;;5.78;2.03;;;;;;;25.24;100.00;101604.38;4988934;28;20054;-49
2023/09/06 04:25:33;;;;;;;4.13;2.03;;;;;;;25.25;100.00;101605.16;4989886;28;20054;-46
2023/09/06 04:28:01;;;;;;;5.20;2.20;;;;;;;25.23;100.00;101611.34;4989698;28;20436;-47
2023/09/06 04:30:28;;;;;;;4.75;2.33;;;;;;;25.23;100.00;101613.41;4989905;28;20050;-49
2023/09/06 04:32:57;;;;;;;3.80;2.10;;;;;;;25.24;100.00;101604.38;4988535;28;20148;-49
2023/09/06 04:35:38;;;;;;;6.32;2.70;;;;;;;25.23;100.00;101617.03;4985295;28;20042;-48
2023/09/06 04:38:05;;;;;;;4.78;2.00;;;;;;;25.24;100.00;101615.75;4989163;28;20069;-50
2023/09/06 04:40:32;;;;;;;5.20;1.92;;;;;;;25.19;100.00;101615.69;4988603;28;20822;-50
2023/09/06 04:42:58;;;;;;;4.40;2.33;;;;;;;25.21;100.00;101613.91;4989710;28;20078;-45
2023/09/06 04:45:25;;;;;;;4.30;2.33;;;;;;;25.24;100.00;101615.00;4989668;28;20054;-49
2023/09/06 04:47:52;;;;;;;4.20;2.45;;;;;;;25.20;100.00;101618.03;4989323;28;20124;-46
2023/09/06 04:50:18;;;;;;;4.68;2.20;;;;;;;25.21;100.00;101618.84;4986752;28;20051;-46
2023/09/06 04:52:46;;;;;;;4.47;2.08;;;;;;;25.21;100.00;101628.13;4993031;28;20054;-48
2023/09/06 04:55:14;;;;;;;5.68;2.15;;;;;;;25.17;100.00;101621.13;4993491;28;20058;-54
2023/09/06 04:57:41;;;;;;;4.53;2.33;;;;;;;25.19;100.00;101633.56;4985786;28;20116;-48
2023/09/06 05:00:23;;;;;;;2.80;1.90;;;;;;;25.21;100.00;101630.97;4993310;28;20416;-49
2023/09/06 05:02:54;;;;;;;3.85;1.98;;;;;;;25.18;100.00;101629.13;4991596;28;20077;-48
2023/09/06 05:05:21;;;;;;;8.68;2.40;;;;;;;25.18;100.00;101634.81;4991926;28;20050;-49
2023/09/06 05:07:47;;;;;;;3.80;2.08;;;;;;;25.17;100.00;101630.41;4993229;28;20050;-51
2023/09/06 05:10:14;;;;;;;3.65;2.08;;;;;;;25.16;100.00;101636.59;4992503;28;20074;-49
2023/09/06 05:12:40;;;;;;;3.33;2.05;;;;;;;25.15;100.00;101630.16;4992897;28;20062;-49
2023/09/06 05:15:08;;;;;;;3.95;2.20;;;;;;;25.16;100.00;101640.25;4992893;28;20053;-46
2023/09/06 05:17:35;;;;;;;3.53;1.92;;;;;;;25.15;100.00;101638.69;4986441;28;20078;-46
2023/09/06 05:20:25;;;;;;;4.72;2.17;;;;;;;25.15;100.00;101638.69;4991568;28;20137;-50
2023/09/06 05:22:52;;;;;;;5.20;2.00;;;;;;;25.16;100.00;101642.28;4990629;28;20050;-50
2023/09/06 05:25:19;;;;;;;4.95;2.28;;;;;;;25.18;100.00;101639.75;4992718;28;20050;-46
2023/09/06 05:27:45;;;;;;;4.80;2.70;;;;;;;25.14;100.00;101650.56;4990705;28;20710;-48
2023/09/06 05:30:12;;;;;;;5.47;2.40;;;;;;;25.15;100.00;101641.53;4992388;28;20141;-48
2023/09/06 05:32:39;;;;;;;5.72;2.50;;;;;;;25.16;100.00;101645.94;4991812;28;20064;-46
2023/09/06 05:35:06;;;;;;;6.85;2.47;;;;;;;25.14;100.00;101639.19;4992826;28;20070;-48
2023/09/06 05:37:32;;;;;;;5.05;2.22;;;;;;;25.15;100.00;101652.13;4992596;28;20105;-53
2023/09/06 05:39:59;;;;;;;7.10;2.65;;;;;;;25.13;100.00;101649.75;4992363;28;20057;-47
2023/09/06 05:42:26;;;;;;;4.15;2.28;;;;;;;25.13;100.00;101657.50;4991441;28;20090;-48
2023/09/06 05:44:52;;;;;;;6.68;2.70;;;;;;;25.15;100.00;101654.97;4990475;28;20160;-46
2023/09/06 05:47:19;;;;;;;4.05;2.17;;;;;;;25.13;100.00;101655.47;4992175;28;20050;-50
2023/09/06 05:49:46;;;;;;;4.75;2.40;;;;;;;25.13;100.00;101661.16;4990055;28;20492;-48
2023/09/06 05:52:13;;;;;;;3.20;1.90;;;;;;;25.14;100.00;101664.78;4988633;28;20062;-48
2023/09/06 05:54:40;;;;;;;3.72;2.25;;;;;;;25.13;100.00;101660.34;4984693;28;20046;-46
2023/09/06 05:57:06;;;;;;;3.50;2.17;;;;;;;25.00;100.00;101660.69;4991117;28;20523;-45
2023/09/06 05:59:33;;;;;;;7.15;2.25;;;;;;;25.02;100.00;101665.91;4991784;28;20478;-47
2023/09/06 06:02:00;;;;;;;6.28;2.50;;;;;;;24.98;100.00;101657.59;4991824;28;20177;-45
2023/09/06 06:04:26;;;;;;;5.78;2.60;;;;;;;25.00;100.00;101663.53;4988172;28;20532;-44
2023/09/06 06:06:54;;;;;;;6.38;2.60;;;;;;;25.04;100.00;101664.13;4996820;28;20062;-48
2023/09/06 06:09:24;;;;;;;7.20;3.30;;;;;;;25.08;100.00;101669.59;4983585;28;20050;-44
2023/09/06 06:11:54;;;;;;;10.00;3.08;;;;;;;25.06;100.00;101666.47;4995467;28;20133;-44
2023/09/06 06:14:22;;;;;;;8.73;2.88;;;;;;;25.06;100.00;101672.94;4984134;28;20102;-45
2023/09/06 06:16:49;;;;;;;6.40;2.67;;;;;;;25.05;100.00;101679.13;4993700;28;20058;-44
2023/09/06 06:19:18;;;;;;;5.88;2.75;;;;;;;24.91;100.00;101675.06;4991281;28;20085;-44
2023/09/06 06:21:46;;;;;;;10.52;3.75;;;;;;;24.96;100.00;101674.34;4984443;28;20535;-43
2023/09/06 06:24:13;;;;;;;7.72;3.33;;;;;;;24.94;100.00;101676.88;4991769;28;20054;-48
2023/09/06 06:26:40;;;;;;;9.57;4.43;;;;;;;24.95;100.00;101672.78;4986816;28;20050;-48
2023/09/06 06:29:06;;;;;;;4.97;2.65;;;;;;;24.97;100.00;101678.00;4990178;28;20125;-44
2023/09/06 06:31:33;;;;;;;9.35;3.00;;;;;;;24.93;100.00;101677.38;4989007;28;20053;-44
2023/09/06 06:34:00;;;;;;;11.35;3.45;;;;;;;24.96;100.00;101679.25;4993905;28;20058;-47
2023/09/06 06:36:26;;;;;;;9.45;3.17;;;;;;;24.79;100.00;101681.81;4990342;28;20057;-45
2023/09/06 06:38:53;;;;;;;9.65;3.58;;;;;;;24.81;100.00;101681.31;4990815;28;20058;-44
2023/09/06 06:41:22;;;;;;;6.82;3.15;;;;;;;24.81;100.00;101682.13;4990476;28;20129;-45
2023/09/06 06:43:49;;;;;;;10.02;3.13;;;;;;;24.81;100.00;101684.97;4989763;28;20050;-46
2023/09/06 06:46:27;;;;;;;10.23;2.95;;;;;;;24.86;100.00;101684.28;4987370;28;20146;-46
2023/09/06 06:48:54;;;;;;;8.18;2.88;;;;;;;24.88;100.00;101684.59;4989266;28;20046;-45
2023/09/06 06:51:21;;;;;;;7.22;3.03;;;;;;;24.85;100.00;101679.88;4989990;28;20082;-44
2023/09/06 06:53:48;;;;;;;11.00;3.40;;;;;;;24.82;100.00;101680.03;4991066;28;20050;-44
2023/09/06 06:56:17;;;;;;;13.75;3.67;;;;;;;24.85;100.00;101679.88;4989592;28;20050;-45
2023/09/06 06:58:43;;;;;;;8.30;3.17;;;;;;;24.82;100.00;101680.84;4988139;28;20065;-45
2023/09/06 07:01:10;;;;;;;9.23;3.20;;;;;;;24.87;100.00;101688.69;4988941;28;20133;-45
2023/09/06 07:03:36;;;;;;;9.30;2.88;;;;;;;24.82;100.00;101689.38;4989185;28;20065;-49
2023/09/06 07:06:05;;;;;;;12.38;3.92;;;;;;;24.85;100.00;101691.25;4990690;28;20156;-44
2023/09/06 07:08:31;;;;;;;8.68;3.35;;;;;;;24.88;100.00;101690.28;4988905;28;20050;-45
2023/09/06 07:10:59;;;;;;;12.52;4.03;;;;;;;24.86;100.00;101680.66;4990632;28;20065;-45
2023/09/06 07:13:26;;;;;;;11.23;3.80;;;;;;;24.89;100.00;101691.03;4988517;28;20118;-44
2023/09/06 07:15:52;;;;;;;11.15;3.60;;;;;;;24.83;100.00;101696.63;4989585;28;20133;-44
2023/09/06 07:18:19;;;;;;;11.23;3.92;;;;;;;24.84;100.00;101683.19;4989935;28;20054;-45
2023/09/06 07:20:47;;;;;;;12.10;3.72;;;;;;;24.82;100.00;101680.03;4989657;28;20085;-46
2023/09/06 07:23:14;;;;;;;10.55;3.70;;;;;;;24.82;100.00;101685.72;4987993;28;20615;-47
2023/09/06 07:25:49;;;;;;;10.23;3.40;;;;;;;24.83;100.00;101685.25;4989781;28;20046;-45
2023/09/06 07:28:15;;;;;;;9.07;4.15;;;;;;;24.86;100.00;101683.50;4990265;28;20050;-48
2023/09/06 07:30:42;;;;;;;9.75;3.53;;;;;;;24.86;100.00;101687.13;4989495;28;20412;-46
2023/09/06 07:33:10;;;;;;;9.80;3.58;;;;;;;24.88;100.00;101680.94;4990562;28;20598;-46
2023/09/06 07:35:37;;;;;;;13.95;4.00;;;;;;;24.87;100.00;101691.53;4990509;28;20705;-44
2023/09/06 07:38:04;;;;;;;9.68;3.33;;;;;;;24.87;100.00;101691.53;4988186;28;20054;-49
2023/09/06 07:40:30;;;;;;;7.25;3.10;;;;;;;24.88;100.00;101690.28;4989506;28;20165;-48
2023/09/06 07:42:57;;;;;;;6.25;3.35;;;;;;;24.88;100.00;101698.00;4989487;28;20165;-49
2023/09/06 07:45:23;;;;;;;9.27;3.40;;;;;;;24.91;100.00;101697.81;4990315;28;20058;-44
2023/09/06 07:47:51;;;;;;;9.05;3.40;;;;;;;24.91;100.00;101702.72;4989643;28;20078;-47
2023/09/06 07:50:18;;;;;;;6.05;3.10;;;;;;;24.88;100.00;101698.00;4989694;28;20738;-49
2023/09/06 07:52:45;;;;;;;7.90;3.38;;;;;;;24.90;100.00;101698.31;4983935;28;20050;-47
2023/09/06 07:55:13;;;;;;;7.15;3.42;;;;;;;24.82;100.00;101697.91;4990039;28;20149;-45
2023/09/06 07:57:39;;;;;;;6.55;3.00;;;;;;;24.77;100.00;101698.56;4989602;28;20061;-46
2023/09/06 08:00:06;;;;;;;9.75;3.85;;;;;;;24.84;100.00;101703.09;4989653;28;20132;-46
2023/09/06 08:02:33;;;;;;;7.68;3.42;;;;;;;24.90;100.00;101701.91;4988655;28;20480;-47
2023/09/06 08:05:00;;;;;;;7.05;3.53;;;;;;;24.82;100.00;101699.94;4988103;28;20050;-45
2023/09/06 08:07:26;;;;;;;6.32;3.10;;;;;;;24.85;100.00;101696.94;4989604;28;20084;-48
2023/09/06 08:09:53;;;;;;;8.38;3.40;;;;;;;24.82;100.00;101703.59;4988633;28;20082;-46
2023/09/06 08:12:19;;;;;;;8.20;3.38;;;;;;;24.86;100.00;101707.03;4989626;28;20108;-46
2023/09/06 08:14:46;;;;;;;12.32;3.50;;;;;;;24.79;100.00;101704.56;4988451;28;20054;-45
2023/09/06 08:17:13;;;;;;;8.88;3.55;;;;;;;24.82;100.00;101697.91;4988169;28;20054;-51
2023/09/06 08:19:39;;;;;;;12.23;3.80;;;;;;;24.85;100.00;101702.63;4988297;28;20515;-50
2023/09/06 08:22:06;;;;;;;8.48;3.10;;;;;;;24.93;100.00;101697.28;4987400;28;20058;-47
2023/09/06 08:24:33;;;;;;;6.82;3.15;;;;;;;24.96;100.00;101696.31;4989252;28;20050;-46
2023/09/06 08:26:59;;;;;;;8.98;3.55;;;;;;;24.94;100.00;101699.66;4989714;28;20137;-48
2023/09/06 08:29:26;;;;;;;10.65;3.25;;;;;;;24.92;100.00;101695.75;4987052;28;20061;-47
2023/09/06 08:31:52;;;;;;;10.18;3.22;;;;;;;24.95;100.00;101698.41;4987739;28;20050;-49
2023/09/06 08:34:19;;;;;;;12.50;3.67;;;;;;;24.99;100.00;101696.13;4988962;28;20530;-49
2023/09/06 08:36:46;;;;;;;7.28;3.28;;;;;;;24.94;100.00;101699.66;4988964;28;20141;-48
2023/09/06 08:39:12;;;;;;;8.23;3.60;;;;;;;24.96;100.00;101697.09;4985011;28;20046;-47
2023/09/06 08:41:41;;;;;;;8.18;3.22;;;;;;;24.99;100.00;101701.00;4987648;28;20078;-46
2023/09/06 08:44:11;;;;;;;7.70;3.22;;;;;;;25.01;100.00;101702.09;4986803;28;20054;-46
2023/09/06 08:46:41;;;;;;;6.68;3.25;;;;;;;24.99;100.00;101695.31;4989477;28;20093;-52
2023/09/06 08:49:09;;;;;;;10.27;3.50;;;;;;;24.98;100.00;101688.06;4988328;28;20050;-46
2023/09/06 08:51:36;;;;;;;9.35;3.20;;;;;;;25.00;100.00;101692.00;4986142;28;20440;-46
2023/09/06 08:54:07;;;;;;;8.07;3.42;;;;;;;24.95;100.00;101692.69;4988505;28;20074;-47
2023/09/06 08:56:34;;;;;;;7.47;3.00;;;;;;;24.98;100.00;101694.56;4989277;28;20108;-49
2023/09/06 08:59:01;;;;;;;9.88;3.10;;;;;;;24.99;100.00;101696.13;4985393;28;20058;-46
2023/09/06 09:01:28;;;;;;;6.97;2.85;;;;;;;24.97;100.00;101683.69;4989116;28;20543;-47
2023/09/06 09:03:55;;;;;;;6.13;3.13;;;;;;;24.95;100.00;101689.84;4987067;28;20105;-47
2023/09/06 09:06:22;;;;;;;8.32;2.95;;;;;;;24.96;100.00;101684.94;4989364;28;20061;-49
2023/09/06 09:08:49;;;;;;;8.50;2.88;;;;;;;24.94;100.00;101691.13;4986886;28;20053;-49
2023/09/06 09:11:20;;;;;;;7.07;3.00;;;;;;;24.95;100.00;101691.91;4989098;28;20054;-48
2023/09/06 09:13:47;;;;;;;8.10;2.97;;;;;;;24.96;100.00;101690.63;4987630;28;20069;-46
2023/09/06 09:16:16;;;;;;;11.45;4.13;;;;;;;24.97;100.00;101687.28;4988908;28;20050;-48
2023/09/06 09:18:44;;;;;;;7.72;2.83;;;;;;;24.96;100.00;101697.09;4988807;28;20133;-50
2023/09/06 09:21:12;;;;;;;6.97;2.72;;;;;;;24.96;100.00;101690.63;4989205;28;20058;-48
2023/09/06 09:23:47;;;;;;;6.38;2.95;;;;;;;24.97;100.00;101695.06;4988880;28;20137;-48
2023/09/06 09:26:16;;;;;;;9.68;3.35;;;;;;;24.97;100.00;101687.28;4994479;28;20129;-48
2023/09/06 09:28:42;;;;;;;8.18;3.05;;;;;;;24.95;100.00;101694.75;4982813;28;20054;-50
2023/09/06 09:31:15;;;;;;;8.55;3.40;;;;;;;24.97;100.00;101692.97;4985524;28;20046;-49
2023/09/06 09:33:45;;;;;;;7.25;3.28;;;;;;;24.99;100.00;101687.59;4988977;28;20057;-48
2023/09/06 09:36:14;;;;;;;7.82;2.88;;;;;;;25.01;100.00;101692.78;4982228;28;20081;-49
2023/09/06 09:38:42;;;;;;;9.18;2.97;;;;;;;25.01;100.00;101701.31;4983030;28;20065;-48
2023/09/06 09:41:09;;;;;;;8.05;3.13;;;;;;;25.00;100.00;101685.53;4992644;28;20050;-49
2023/09/06 09:43:36;;;;;;;6.05;2.88;;;;;;;25.00;100.00;101689.16;4994647;28;20082;-47
2023/09/06 09:46:02;;;;;;;8.10;3.10;;;;;;;24.99;100.00;101690.44;4990649;28;20428;-50
2023/09/06 09:48:30;;;;;;;7.13;3.10;;;;;;;25.01;100.00;101702.09;4991334;28;20073;-51
2023/09/06 09:51:01;;;;;;;5.95;2.72;;;;;;;24.92;100.00;101698.59;4987867;28;21103;-46
2023/09/06 09:53:31;;;;;;;6.63;2.78;;;;;;;24.95;100.00;101683.38;4982353;28;20057;-50
2023/09/06 09:56:06;;;;;;;6.32;2.83;;;;;;;24.78;100.00;101680.25;4988040;28;20129;-51
2023/09/06 09:58:36;;;;;;;8.57;3.00;;;;;;;24.72;100.00;101675.75;4985935;28;20045;-49
2023/09/06 10:01:06;;;;;;;7.07;3.10;;;;;;;24.68;100.00;101681.66;4990747;28;20101;-49
2023/09/06 10:03:34;;;;;;;6.15;2.92;;;;;;;24.66;100.00;101678.50;4989646;28;20058;-48
2023/09/06 10:06:03;;;;;;;8.73;3.38;;;;;;;24.62;100.00;101680.78;4998139;28;20572;-48
2023/09/06 10:08:33;;;;;;;8.88;3.30;;;;;;;24.70;100.00;101679.06;4988628;28;20505;-46
2023/09/06 10:10:59;;;;;;;6.00;2.80;;;;;;;24.72;100.00;101678.59;4990456;28;20125;-48
2023/09/06 10:13:26;;;;;;;6.65;2.65;;;;;;;24.61;100.00;101670.69;4990175;28;20125;-47
2023/09/06 10:15:56;;;;;;;4.38;2.50;;;;;;;24.61;100.00;101676.38;4989138;28;20412;-50
2023/09/06 10:18:23;;;;;;;8.88;3.05;;;;;;;24.63;100.00;101673.78;4986038;28;20052;-48
2023/09/06 10:20:50;;;;;;;6.10;2.60;;;;;;;24.62;100.00;101662.91;4989378;28;20061;-48
2023/09/06 10:23:17;;;;;;;5.60;2.60;;;;;;;24.59;100.00;101667.53;4986047;28;20074;-48
2023/09/06 10:25:53;;;;;;;5.90;2.92;;;;;;;24.60;100.00;101663.41;4989840;28;20129;-49
2023/09/06 10:28:23;;;;;;;5.75;2.80;;;;;;;24.61;100.00;101662.16;4986651;28;20456;-46
2023/09/06 10:30:57;;;;;;;8.07;2.90;;;;;;;24.66;100.00;101667.13;4988916;28;20074;-47
2023/09/06 10:33:33;;;;;;;6.70;2.58;;;;;;;24.66;100.00;101669.97;4987922;28;20480;-52
2023/09/06 10:36:06;;;;;;;6.60;2.45;;;;;;;24.65;100.00;101659.88;4986116;28;20050;-49
2023/09/06 10:38:35;;;;;;;7.15;3.00;;;;;;;24.63;100.00;101659.59;4988256;28;20424;-50
2023/09/06 10:41:06;;;;;;;6.78;2.95;;;;;;;24.67;100.00;101659.41;4987446;28;20046;-49
2023/09/06 10:43:53;;;;;;;8.63;2.50;;;;;;;24.67;100.00;101662.25;4989458;28;20050;-51
2023/09/06 10:46:23;;;;;;;7.07;3.17;;;;;;;24.65;100.00;101665.56;4990452;28;20042;-48
2023/09/06 10:49:22;;;;;;;9.43;2.97;;;;;;;24.68;100.00;101660.94;4990858;28;20042;-46
2023/09/06 10:52:08;;;;;;;7.00;2.58;;;;;;;24.67;100.00;101665.84;4997190;28;20054;-47
2023/09/06 10:54:39;;;;;;;5.82;2.78;;;;;;;24.66;100.00;101663.50;4986607;28;20042;-50
2023/09/06 10:57:10;;;;;;;6.45;2.80;;;;;;;24.68;100.00;101653.22;4989399;28;20114;-49
2023/09/06 10:59:38;;;;;;;4.82;2.67;;;;;;;24.82;100.00;101643.88;4986447;28;20638;-50
2023/09/06 11:02:20;;;;;;;6.53;3.25;;;;;;;24.92;100.00;101651.03;4988733;28;20126;-47
2023/09/06 11:05:02;;;;;;;6.65;2.70;;;;;;;24.80;100.00;101649.25;4983853;28;20046;-48
2023/09/06 11:07:43;;;;;;;7.53;2.47;;;;;;;24.77;100.00;101641.69;4992304;28;20160;-51
2023/09/06 11:10:22;;;;;;;5.07;2.50;;;;;;;24.76;100.00;101645.84;4986846;28;20077;-51
2023/09/06 11:12:51;;;;;;;10.10;3.13;;;;;;;24.80;100.00;101646.41;4988060;28;20546;-47
2023/09/06 11:15:17;;;;;;;4.53;2.58;;;;;;;24.81;100.00;101650.03;4987583;28;20063;-48
2023/09/06 11:17:44;;;;;;;7.85;2.60;;;;;;;24.82;100.00;101643.06;4987981;28;20559;-48
2023/09/06 11:20:16;;;;;;;6.93;2.63;;;;;;;24.74;100.00;101639.09;4988348;28;20045;-50
2023/09/06 11:22:56;;;;;;;4.95;2.45;;;;;;;24.73;100.00;101637.53;4989510;28;20054;-49
2023/09/06 11:25:25;;;;;;;5.75;2.40;;;;;;;24.69;100.00;101634.06;4993031;28;20169;-47